sensor_id;sensor_type;location;lat;lon;timestamp;P1;durP1;ratioP1;P2;durP2;ratioP2
27303;SDS011;14791;52.392;13.092;2022-12-05T00:01:42;34.90;;;22.57;;
27303;SDS011;14791;52.392;13.092;2022-12-05T00:04:12;33.93;;;22.77;;
27303;SDS011;14791;52.392;13.092;2022-12-05T00:06:41;35.63;;;22.93;;
27303;SDS011;14791;52.392;13.092;2022-12-05T00:09:11;32.27;;;20.47;;
27303;SDS011;14791;52.392;13.092;2022-12-05T00:11:42;35.53;;;22.60;;
27303;SDS011;14791;52.392;13.092;2022-12-05T00:14:12;35.40;;;22.77;;
27303;SDS011;14791;52.392;13.092;2022-12-05T00:16:41;34.63;;;22.30;;
27303;SDS011;14791;52.392;13.092;2022-12-05T00:19:12;34.67;;;22.47;;
27303;SDS011;14791;52.392;13.092;2022-12-05T00:21:42;32.60;;;21.07;;
27303;SDS011;14791;52.392;13.092;2022-12-05T00:24:13;31.83;;;22.07;;
27303;SDS011;14791;52.392;13.092;2022-12-05T00:26:43;35.47;;;23.33;;
27303;SDS011;14791;52.392;13.092;2022-12-05T00:29:12;34.60;;;22.37;;
27303;SDS011;14791;52.392;13.092;2022-12-05T00:31:41;36.80;;;23.70;;
27303;SDS011;14791;52.392;13.092;2022-12-05T00:34:11;27.03;;;19.37;;
27303;SDS011;14791;52.392;13.092;2022-12-05T00:36:40;29.30;;;20.60;;
27303;SDS011;14791;52.392;13.092;2022-12-05T00:39:10;31.70;;;20.63;;
27303;SDS011;14791;52.392;13.092;2022-12-05T00:41:41;33.20;;;22.37;;
27303;SDS011;14791;52.392;13.092;2022-12-05T00:44:11;28.33;;;21.10;;
27303;SDS011;14791;52.392;13.092;2022-12-05T00:46:40;32.23;;;21.43;;
27303;SDS011;14791;52.392;13.092;2022-12-05T00:49:09;32.27;;;20.63;;
27303;SDS011;14791;52.392;13.092;2022-12-05T00:51:40;29.23;;;20.27;;
27303;SDS011;14791;52.392;13.092;2022-12-05T00:54:16;33.33;;;21.70;;
27303;SDS011;14791;52.392;13.092;2022-12-05T01:10:20;27.30;;;19.33;;
27303;SDS011;14791;52.392;13.092;2022-12-05T01:13:22;30.10;;;20.97;;
27303;SDS011;14791;52.392;13.092;2022-12-05T01:15:47;30.83;;;21.30;;
27303;SDS011;14791;52.392;13.092;2022-12-05T01:18:37;31.93;;;21.77;;
27303;SDS011;14791;52.392;13.092;2022-12-05T01:27:40;30.40;;;20.77;;
27303;SDS011;14791;52.392;13.092;2022-12-05T01:30:38;33.63;;;22.03;;
27303;SDS011;14791;52.392;13.092;2022-12-05T01:33:23;30.17;;;21.37;;
27303;SDS011;14791;52.392;13.092;2022-12-05T01:36:01;31.97;;;22.77;;
27303;SDS011;14791;52.392;13.092;2022-12-05T01:41:45;31.70;;;21.30;;
27303;SDS011;14791;52.392;13.092;2022-12-05T01:50:28;29.10;;;20.23;;
27303;SDS011;14791;52.392;13.092;2022-12-05T01:56:07;28.10;;;19.37;;
27303;SDS011;14791;52.392;13.092;2022-12-05T01:58:37;31.50;;;20.93;;
27303;SDS011;14791;52.392;13.092;2022-12-05T02:01:08;28.67;;;19.77;;
27303;SDS011;14791;52.392;13.092;2022-12-05T02:03:40;28.17;;;18.70;;
27303;SDS011;14791;52.392;13.092;2022-12-05T02:06:11;32.93;;;21.33;;
27303;SDS011;14791;52.392;13.092;2022-12-05T02:08:41;32.10;;;20.50;;
27303;SDS011;14791;52.392;13.092;2022-12-05T02:11:11;25.40;;;19.43;;
27303;SDS011;14791;52.392;13.092;2022-12-05T02:19:30;29.43;;;22.17;;
27303;SDS011;14791;52.392;13.092;2022-12-05T02:22:14;27.73;;;20.37;;
27303;SDS011;14791;52.392;13.092;2022-12-05T02:24:52;31.37;;;21.20;;
27303;SDS011;14791;52.392;13.092;2022-12-05T02:27:40;27.10;;;18.23;;
27303;SDS011;14791;52.392;13.092;2022-12-05T02:30:18;28.67;;;20.53;;
27303;SDS011;14791;52.392;13.092;2022-12-05T02:33:09;26.13;;;20.30;;
27303;SDS011;14791;52.392;13.092;2022-12-05T02:38:30;26.27;;;18.93;;
27303;SDS011;14791;52.392;13.092;2022-12-05T02:46:18;29.17;;;20.30;;
27303;SDS011;14791;52.392;13.092;2022-12-05T02:48:53;29.37;;;20.33;;
27303;SDS011;14791;52.392;13.092;2022-12-05T02:51:23;26.43;;;19.80;;
27303;SDS011;14791;52.392;13.092;2022-12-05T02:53:56;29.67;;;21.27;;
27303;SDS011;14791;52.392;13.092;2022-12-05T02:56:27;26.73;;;19.50;;
27303;SDS011;14791;52.392;13.092;2022-12-05T02:58:59;26.33;;;19.27;;
27303;SDS011;14791;52.392;13.092;2022-12-05T03:01:29;25.10;;;17.23;;
27303;SDS011;14791;52.392;13.092;2022-12-05T03:04:00;27.63;;;19.30;;
27303;SDS011;14791;52.392;13.092;2022-12-05T03:06:33;26.43;;;19.07;;
27303;SDS011;14791;52.392;13.092;2022-12-05T03:09:04;22.80;;;16.50;;
27303;SDS011;14791;52.392;13.092;2022-12-05T03:11:46;21.47;;;17.17;;
27303;SDS011;14791;52.392;13.092;2022-12-05T03:14:21;23.37;;;17.20;;
27303;SDS011;14791;52.392;13.092;2022-12-05T03:16:52;23.57;;;17.80;;
27303;SDS011;14791;52.392;13.092;2022-12-05T03:19:24;21.43;;;18.27;;
27303;SDS011;14791;52.392;13.092;2022-12-05T03:22:00;23.23;;;17.10;;
27303;SDS011;14791;52.392;13.092;2022-12-05T03:24:27;24.40;;;18.07;;
27303;SDS011;14791;52.392;13.092;2022-12-05T03:27:08;22.43;;;17.10;;
27303;SDS011;14791;52.392;13.092;2022-12-05T03:29:44;21.43;;;16.73;;
27303;SDS011;14791;52.392;13.092;2022-12-05T03:32:23;23.47;;;17.03;;
27303;SDS011;14791;52.392;13.092;2022-12-05T03:35:17;20.50;;;16.80;;
27303;SDS011;14791;52.392;13.092;2022-12-05T03:40:37;18.67;;;15.57;;
27303;SDS011;14791;52.392;13.092;2022-12-05T03:45:47;17.37;;;14.87;;
27303;SDS011;14791;52.392;13.092;2022-12-05T03:48:29;22.37;;;16.50;;
27303;SDS011;14791;52.392;13.092;2022-12-05T03:50:59;25.47;;;17.53;;
27303;SDS011;14791;52.392;13.092;2022-12-05T03:53:50;18.03;;;15.03;;
27303;SDS011;14791;52.392;13.092;2022-12-05T03:56:21;20.93;;;16.03;;
27303;SDS011;14791;52.392;13.092;2022-12-05T03:58:56;23.20;;;17.27;;
27303;SDS011;14791;52.392;13.092;2022-12-05T04:01:29;19.47;;;16.63;;
27303;SDS011;14791;52.392;13.092;2022-12-05T04:04:06;19.87;;;15.63;;
27303;SDS011;14791;52.392;13.092;2022-12-05T04:06:44;17.63;;;14.87;;
27303;SDS011;14791;52.392;13.092;2022-12-05T04:09:27;17.70;;;15.27;;
27303;SDS011;14791;52.392;13.092;2022-12-05T04:11:58;18.77;;;15.87;;
27303;SDS011;14791;52.392;13.092;2022-12-05T04:14:40;19.07;;;16.23;;
27303;SDS011;14791;52.392;13.092;2022-12-05T04:17:08;18.10;;;15.03;;
27303;SDS011;14791;52.392;13.092;2022-12-05T04:19:52;23.43;;;16.70;;
27303;SDS011;14791;52.392;13.092;2022-12-05T04:22:44;21.03;;;17.00;;
27303;SDS011;14791;52.392;13.092;2022-12-05T04:25:14;21.90;;;16.27;;
27303;SDS011;14791;52.392;13.092;2022-12-05T04:31:14;20.30;;;16.33;;
27303;SDS011;14791;52.392;13.092;2022-12-05T04:33:43;22.20;;;16.40;;
27303;SDS011;14791;52.392;13.092;2022-12-05T04:39:26;19.07;;;16.23;;
27303;SDS011;14791;52.392;13.092;2022-12-05T04:41:59;20.27;;;15.83;;
27303;SDS011;14791;52.392;13.092;2022-12-05T04:44:28;19.10;;;16.20;;
27303;SDS011;14791;52.392;13.092;2022-12-05T04:46:59;20.00;;;14.23;;
27303;SDS011;14791;52.392;13.092;2022-12-05T04:49:30;17.57;;;14.00;;
27303;SDS011;14791;52.392;13.092;2022-12-05T04:52:03;19.20;;;15.77;;
27303;SDS011;14791;52.392;13.092;2022-12-05T04:54:36;17.57;;;14.97;;
27303;SDS011;14791;52.392;13.092;2022-12-05T04:57:21;17.80;;;15.07;;
27303;SDS011;14791;52.392;13.092;2022-12-05T04:59:52;18.63;;;14.67;;
27303;SDS011;14791;52.392;13.092;2022-12-05T05:02:23;20.30;;;15.63;;
27303;SDS011;14791;52.392;13.092;2022-12-05T05:04:53;16.40;;;14.37;;
27303;SDS011;14791;52.392;13.092;2022-12-05T05:07:25;19.43;;;14.93;;
27303;SDS011;14791;52.392;13.092;2022-12-05T05:09:55;19.00;;;14.50;;
27303;SDS011;14791;52.392;13.092;2022-12-05T05:12:24;17.23;;;14.83;;
27303;SDS011;14791;52.392;13.092;2022-12-05T05:14:53;14.07;;;12.37;;
27303;SDS011;14791;52.392;13.092;2022-12-05T05:17:22;14.73;;;13.30;;
27303;SDS011;14791;52.392;13.092;2022-12-05T05:19:51;15.53;;;14.00;;
27303;SDS011;14791;52.392;13.092;2022-12-05T05:22:21;16.73;;;14.50;;
27303;SDS011;14791;52.392;13.092;2022-12-05T05:24:50;17.90;;;15.07;;
27303;SDS011;14791;52.392;13.092;2022-12-05T05:27:19;13.73;;;12.33;;
27303;SDS011;14791;52.392;13.092;2022-12-05T05:29:48;16.43;;;14.70;;
27303;SDS011;14791;52.392;13.092;2022-12-05T05:32:17;18.60;;;14.27;;
27303;SDS011;14791;52.392;13.092;2022-12-05T05:34:46;15.43;;;13.80;;
27303;SDS011;14791;52.392;13.092;2022-12-05T05:37:14;14.60;;;13.20;;
27303;SDS011;14791;52.392;13.092;2022-12-05T05:39:43;13.83;;;12.40;;
27303;SDS011;14791;52.392;13.092;2022-12-05T05:42:12;14.27;;;11.97;;
27303;SDS011;14791;52.392;13.092;2022-12-05T05:44:41;12.27;;;11.00;;
27303;SDS011;14791;52.392;13.092;2022-12-05T05:47:10;13.50;;;12.17;;
27303;SDS011;14791;52.392;13.092;2022-12-05T05:49:39;14.57;;;12.97;;
27303;SDS011;14791;52.392;13.092;2022-12-05T05:52:08;13.73;;;12.20;;
27303;SDS011;14791;52.392;13.092;2022-12-05T05:54:37;13.10;;;11.80;;
27303;SDS011;14791;52.392;13.092;2022-12-05T05:57:05;12.27;;;11.00;;
27303;SDS011;14791;52.392;13.092;2022-12-05T05:59:34;13.13;;;11.70;;
27303;SDS011;14791;52.392;13.092;2022-12-05T06:02:03;11.57;;;10.37;;
27303;SDS011;14791;52.392;13.092;2022-12-05T06:04:33;11.73;;;10.67;;
27303;SDS011;14791;52.392;13.092;2022-12-05T06:07:02;12.07;;;10.90;;
27303;SDS011;14791;52.392;13.092;2022-12-05T06:09:31;12.97;;;11.70;;
27303;SDS011;14791;52.392;13.092;2022-12-05T06:12:00;12.17;;;10.97;;
27303;SDS011;14791;52.392;13.092;2022-12-05T06:14:29;12.73;;;11.50;;
27303;SDS011;14791;52.392;13.092;2022-12-05T06:16:58;11.67;;;10.53;;
27303;SDS011;14791;52.392;13.092;2022-12-05T06:19:27;12.20;;;11.07;;
27303;SDS011;14791;52.392;13.092;2022-12-05T06:21:56;12.73;;;10.60;;
27303;SDS011;14791;52.392;13.092;2022-12-05T06:24:25;11.83;;;10.63;;
27303;SDS011;14791;52.392;13.092;2022-12-05T06:26:54;12.40;;;11.30;;
27303;SDS011;14791;52.392;13.092;2022-12-05T06:29:23;13.53;;;12.13;;
27303;SDS011;14791;52.392;13.092;2022-12-05T06:31:52;13.00;;;11.60;;
27303;SDS011;14791;52.392;13.092;2022-12-05T06:34:21;12.77;;;11.47;;
27303;SDS011;14791;52.392;13.092;2022-12-05T06:36:49;12.87;;;11.73;;
27303;SDS011;14791;52.392;13.092;2022-12-05T06:39:18;12.57;;;11.33;;
27303;SDS011;14791;52.392;13.092;2022-12-05T06:41:47;12.00;;;10.80;;
27303;SDS011;14791;52.392;13.092;2022-12-05T06:44:16;10.50;;;9.50;;
27303;SDS011;14791;52.392;13.092;2022-12-05T06:46:47;11.20;;;10.13;;
27303;SDS011;14791;52.392;13.092;2022-12-05T06:49:16;11.50;;;10.47;;
27303;SDS011;14791;52.392;13.092;2022-12-05T06:51:45;11.33;;;10.33;;
27303;SDS011;14791;52.392;13.092;2022-12-05T06:54:14;11.40;;;10.30;;
27303;SDS011;14791;52.392;13.092;2022-12-05T06:56:42;10.03;;;9.20;;
27303;SDS011;14791;52.392;13.092;2022-12-05T06:59:12;12.10;;;10.90;;
27303;SDS011;14791;52.392;13.092;2022-12-05T07:01:40;10.90;;;9.90;;
27303;SDS011;14791;52.392;13.092;2022-12-05T07:04:11;10.50;;;9.60;;
27303;SDS011;14791;52.392;13.092;2022-12-05T07:06:42;9.07;;;8.27;;
27303;SDS011;14791;52.392;13.092;2022-12-05T07:09:12;10.23;;;9.33;;
27303;SDS011;14791;52.392;13.092;2022-12-05T07:11:41;10.40;;;9.50;;
27303;SDS011;14791;52.392;13.092;2022-12-05T07:14:12;10.23;;;9.33;;
27303;SDS011;14791;52.392;13.092;2022-12-05T07:16:40;10.53;;;9.53;;
27303;SDS011;14791;52.392;13.092;2022-12-05T07:19:09;8.67;;;7.97;;
27303;SDS011;14791;52.392;13.092;2022-12-05T07:21:38;10.07;;;9.17;;
27303;SDS011;14791;52.392;13.092;2022-12-05T07:24:07;8.87;;;8.17;;
27303;SDS011;14791;52.392;13.092;2022-12-05T07:26:36;8.70;;;8.20;;
27303;SDS011;14791;52.392;13.092;2022-12-05T07:29:05;10.07;;;9.27;;
27303;SDS011;14791;52.392;13.092;2022-12-05T07:31:34;10.63;;;9.60;;
27303;SDS011;14791;52.392;13.092;2022-12-05T07:34:03;9.47;;;8.70;;
27303;SDS011;14791;52.392;13.092;2022-12-05T07:36:32;9.03;;;8.33;;
27303;SDS011;14791;52.392;13.092;2022-12-05T07:39:01;9.20;;;8.47;;
27303;SDS011;14791;52.392;13.092;2022-12-05T07:41:31;8.90;;;8.30;;
27303;SDS011;14791;52.392;13.092;2022-12-05T07:44:03;8.07;;;7.47;;
27303;SDS011;14791;52.392;13.092;2022-12-05T07:46:32;9.23;;;8.50;;
27303;SDS011;14791;52.392;13.092;2022-12-05T07:49:01;9.80;;;8.93;;
27303;SDS011;14791;52.392;13.092;2022-12-05T07:51:30;8.67;;;7.97;;
27303;SDS011;14791;52.392;13.092;2022-12-05T07:54:01;9.00;;;8.33;;
27303;SDS011;14791;52.392;13.092;2022-12-05T07:56:30;8.20;;;7.63;;
27303;SDS011;14791;52.392;13.092;2022-12-05T07:58:59;8.33;;;7.73;;
27303;SDS011;14791;52.392;13.092;2022-12-05T08:01:28;8.23;;;7.67;;
27303;SDS011;14791;52.392;13.092;2022-12-05T08:03:58;8.47;;;7.80;;
27303;SDS011;14791;52.392;13.092;2022-12-05T08:06:27;7.27;;;6.77;;
27303;SDS011;14791;52.392;13.092;2022-12-05T08:08:58;6.87;;;6.47;;
27303;SDS011;14791;52.392;13.092;2022-12-05T08:11:32;6.90;;;6.50;;
27303;SDS011;14791;52.392;13.092;2022-12-05T08:14:01;7.10;;;6.67;;
27303;SDS011;14791;52.392;13.092;2022-12-05T08:16:31;7.23;;;6.77;;
27303;SDS011;14791;52.392;13.092;2022-12-05T08:19:01;7.90;;;7.37;;
27303;SDS011;14791;52.392;13.092;2022-12-05T08:21:35;8.00;;;7.50;;
27303;SDS011;14791;52.392;13.092;2022-12-05T08:24:05;7.03;;;6.57;;
27303;SDS011;14791;52.392;13.092;2022-12-05T08:26:35;10.97;;;10.17;;
27303;SDS011;14791;52.392;13.092;2022-12-05T08:29:06;8.87;;;8.27;;
27303;SDS011;14791;52.392;13.092;2022-12-05T08:31:48;7.10;;;6.60;;
27303;SDS011;14791;52.392;13.092;2022-12-05T08:34:14;7.60;;;7.00;;
27303;SDS011;14791;52.392;13.092;2022-12-05T08:36:45;7.57;;;7.10;;
27303;SDS011;14791;52.392;13.092;2022-12-05T08:39:15;7.53;;;7.13;;
27303;SDS011;14791;52.392;13.092;2022-12-05T08:41:45;7.60;;;7.10;;
27303;SDS011;14791;52.392;13.092;2022-12-05T08:44:15;7.93;;;7.37;;
27303;SDS011;14791;52.392;13.092;2022-12-05T08:46:46;7.97;;;7.47;;
27303;SDS011;14791;52.392;13.092;2022-12-05T08:49:16;7.97;;;7.43;;
27303;SDS011;14791;52.392;13.092;2022-12-05T08:51:46;7.83;;;7.30;;
27303;SDS011;14791;52.392;13.092;2022-12-05T08:54:15;8.37;;;7.83;;
27303;SDS011;14791;52.392;13.092;2022-12-05T08:56:44;7.67;;;7.17;;
27303;SDS011;14791;52.392;13.092;2022-12-05T08:59:13;7.97;;;7.47;;
27303;SDS011;14791;52.392;13.092;2022-12-05T09:01:42;7.23;;;6.73;;
27303;SDS011;14791;52.392;13.092;2022-12-05T09:04:11;7.87;;;7.37;;
27303;SDS011;14791;52.392;13.092;2022-12-05T09:06:40;7.70;;;7.13;;
27303;SDS011;14791;52.392;13.092;2022-12-05T09:09:09;8.20;;;7.60;;
27303;SDS011;14791;52.392;13.092;2022-12-05T09:11:40;7.43;;;6.93;;
27303;SDS011;14791;52.392;13.092;2022-12-05T09:14:12;8.90;;;8.23;;
27303;SDS011;14791;52.392;13.092;2022-12-05T09:16:44;7.70;;;7.13;;
27303;SDS011;14791;52.392;13.092;2022-12-05T09:19:19;7.47;;;6.87;;
27303;SDS011;14791;52.392;13.092;2022-12-05T09:21:51;8.97;;;8.37;;
27303;SDS011;14791;52.392;13.092;2022-12-05T09:24:20;8.80;;;8.17;;
27303;SDS011;14791;52.392;13.092;2022-12-05T09:26:49;8.77;;;8.10;;
27303;SDS011;14791;52.392;13.092;2022-12-05T09:29:18;8.47;;;7.77;;
27303;SDS011;14791;52.392;13.092;2022-12-05T09:31:47;8.23;;;7.67;;
27303;SDS011;14791;52.392;13.092;2022-12-05T09:34:18;7.53;;;7.03;;
27303;SDS011;14791;52.392;13.092;2022-12-05T09:36:47;6.90;;;6.47;;
27303;SDS011;14791;52.392;13.092;2022-12-05T09:39:18;7.83;;;7.23;;
27303;SDS011;14791;52.392;13.092;2022-12-05T09:50:10;9.53;;;8.77;;
27303;SDS011;14791;52.392;13.092;2022-12-05T09:52:48;7.93;;;7.23;;
27303;SDS011;14791;52.392;13.092;2022-12-05T09:55:16;8.23;;;7.70;;
27303;SDS011;14791;52.392;13.092;2022-12-05T09:57:51;8.53;;;7.80;;
27303;SDS011;14791;52.392;13.092;2022-12-05T10:00:21;9.53;;;8.73;;
27303;SDS011;14791;52.392;13.092;2022-12-05T10:05:36;7.70;;;7.13;;
27303;SDS011;14791;52.392;13.092;2022-12-05T10:08:09;10.17;;;9.27;;
27303;SDS011;14791;52.392;13.092;2022-12-05T10:10:58;8.67;;;8.07;;
27303;SDS011;14791;52.392;13.092;2022-12-05T10:13:42;9.27;;;8.40;;
27303;SDS011;14791;52.392;13.092;2022-12-05T10:16:18;9.57;;;8.73;;
27303;SDS011;14791;52.392;13.092;2022-12-05T10:18:58;9.77;;;9.00;;
27303;SDS011;14791;52.392;13.092;2022-12-05T10:21:31;10.30;;;9.33;;
27303;SDS011;14791;52.392;13.092;2022-12-05T10:24:36;7.60;;;6.90;;
27303;SDS011;14791;52.392;13.092;2022-12-05T10:27:09;9.60;;;8.90;;
27303;SDS011;14791;52.392;13.092;2022-12-05T10:32:18;8.10;;;7.50;;
27303;SDS011;14791;52.392;13.092;2022-12-05T10:34:49;8.70;;;7.90;;
27303;SDS011;14791;52.392;13.092;2022-12-05T10:37:23;9.83;;;9.00;;
27303;SDS011;14791;52.392;13.092;2022-12-05T10:39:52;8.53;;;7.93;;
27303;SDS011;14791;52.392;13.092;2022-12-05T10:42:25;9.10;;;8.40;;
27303;SDS011;14791;52.392;13.092;2022-12-05T10:45:03;9.87;;;8.97;;
27303;SDS011;14791;52.392;13.092;2022-12-05T10:47:29;9.77;;;9.07;;
27303;SDS011;14791;52.392;13.092;2022-12-05T10:50:04;8.10;;;7.60;;
27303;SDS011;14791;52.392;13.092;2022-12-05T10:52:36;8.40;;;7.90;;
27303;SDS011;14791;52.392;13.092;2022-12-05T10:55:05;8.77;;;8.07;;
27303;SDS011;14791;52.392;13.092;2022-12-05T10:57:35;8.60;;;7.97;;
27303;SDS011;14791;52.392;13.092;2022-12-05T11:00:11;9.37;;;8.67;;
27303;SDS011;14791;52.392;13.092;2022-12-05T11:02:41;10.00;;;9.20;;
27303;SDS011;14791;52.392;13.092;2022-12-05T11:05:10;9.43;;;8.73;;
27303;SDS011;14791;52.392;13.092;2022-12-05T11:10:26;8.80;;;8.23;;
27303;SDS011;14791;52.392;13.092;2022-12-05T11:13:13;8.27;;;7.67;;
27303;SDS011;14791;52.392;13.092;2022-12-05T11:15:45;9.23;;;8.60;;
27303;SDS011;14791;52.392;13.092;2022-12-05T11:18:34;7.83;;;7.30;;
27303;SDS011;14791;52.392;13.092;2022-12-05T11:21:12;8.33;;;7.80;;
27303;SDS011;14791;52.392;13.092;2022-12-05T11:23:43;7.93;;;7.33;;
27303;SDS011;14791;52.392;13.092;2022-12-05T11:29:02;9.83;;;9.00;;
27303;SDS011;14791;52.392;13.092;2022-12-05T11:31:31;8.47;;;7.87;;
27303;SDS011;14791;52.392;13.092;2022-12-05T11:34:25;8.67;;;8.07;;
27303;SDS011;14791;52.392;13.092;2022-12-05T11:36:46;10.17;;;9.20;;
27303;SDS011;14791;52.392;13.092;2022-12-05T11:39:16;9.20;;;8.50;;
27303;SDS011;14791;52.392;13.092;2022-12-05T11:41:57;9.47;;;8.57;;
27303;SDS011;14791;52.392;13.092;2022-12-05T11:55:35;12.40;;;11.23;;
27303;SDS011;14791;52.392;13.092;2022-12-05T12:04:23;9.83;;;9.03;;
27303;SDS011;14791;52.392;13.092;2022-12-05T12:06:59;9.77;;;8.90;;
27303;SDS011;14791;52.392;13.092;2022-12-05T12:21:44;8.20;;;7.53;;
27303;SDS011;14791;52.392;13.092;2022-12-05T12:32:32;7.93;;;7.33;;
27303;SDS011;14791;52.392;13.092;2022-12-05T12:48:57;9.47;;;8.67;;
27303;SDS011;14791;52.392;13.092;2022-12-05T12:51:27;9.80;;;9.00;;
27303;SDS011;14791;52.392;13.092;2022-12-05T12:56:51;10.53;;;9.63;;
27303;SDS011;14791;52.392;13.092;2022-12-05T12:59:40;10.30;;;9.27;;
27303;SDS011;14791;52.392;13.092;2022-12-05T13:02:18;7.87;;;7.37;;
27303;SDS011;14791;52.392;13.092;2022-12-05T13:04:52;9.57;;;8.87;;
27303;SDS011;14791;52.392;13.092;2022-12-05T13:07:57;10.90;;;9.80;;
27303;SDS011;14791;52.392;13.092;2022-12-05T13:12:49;10.37;;;9.33;;
27303;SDS011;14791;52.392;13.092;2022-12-05T13:15:19;11.03;;;9.93;;
27303;SDS011;14791;52.392;13.092;2022-12-05T13:17:53;10.43;;;9.43;;
27303;SDS011;14791;52.392;13.092;2022-12-05T13:20:23;12.17;;;9.87;;
27303;SDS011;14791;52.392;13.092;2022-12-05T13:22:55;12.07;;;10.57;;
27303;SDS011;14791;52.392;13.092;2022-12-05T13:25:27;11.50;;;10.40;;
27303;SDS011;14791;52.392;13.092;2022-12-05T13:28:00;9.10;;;8.30;;
27303;SDS011;14791;52.392;13.092;2022-12-05T13:30:32;12.00;;;10.77;;
27303;SDS011;14791;52.392;13.092;2022-12-05T13:33:05;11.90;;;10.67;;
27303;SDS011;14791;52.392;13.092;2022-12-05T13:35:36;11.30;;;10.10;;
27303;SDS011;14791;52.392;13.092;2022-12-05T13:38:27;10.57;;;9.47;;
27303;SDS011;14791;52.392;13.092;2022-12-05T13:41:16;8.20;;;7.60;;
27303;SDS011;14791;52.392;13.092;2022-12-05T13:44:03;9.77;;;8.97;;
27303;SDS011;14791;52.392;13.092;2022-12-05T13:46:38;12.77;;;11.40;;
27303;SDS011;14791;52.392;13.092;2022-12-05T13:49:13;11.77;;;10.63;;
27303;SDS011;14791;52.392;13.092;2022-12-05T13:51:44;10.00;;;9.07;;
27303;SDS011;14791;52.392;13.092;2022-12-05T13:54:18;14.63;;;11.83;;
27303;SDS011;14791;52.392;13.092;2022-12-05T13:56:53;11.20;;;10.07;;
27303;SDS011;14791;52.392;13.092;2022-12-05T14:07:51;12.83;;;9.83;;
27303;SDS011;14791;52.392;13.092;2022-12-05T14:13:00;14.20;;;11.97;;
27303;SDS011;14791;52.392;13.092;2022-12-05T14:15:44;15.37;;;12.33;;
27303;SDS011;14791;52.392;13.092;2022-12-05T14:21:13;11.13;;;9.57;;
27303;SDS011;14791;52.392;13.092;2022-12-05T14:26:32;14.40;;;12.60;;
27303;SDS011;14791;52.392;13.092;2022-12-05T14:31:52;16.27;;;14.57;;
27303;SDS011;14791;52.392;13.092;2022-12-05T14:34:34;10.87;;;9.87;;
27303;SDS011;14791;52.392;13.092;2022-12-05T14:37:07;18.23;;;12.63;;
27303;SDS011;14791;52.392;13.092;2022-12-05T14:39:51;12.13;;;10.90;;
27303;SDS011;14791;52.392;13.092;2022-12-05T14:45:54;10.57;;;9.10;;
27303;SDS011;14791;52.392;13.092;2022-12-05T14:47:52;11.67;;;10.53;;
27303;SDS011;14791;52.392;13.092;2022-12-05T14:56:01;17.40;;;12.13;;
27303;SDS011;14791;52.392;13.092;2022-12-05T15:01:05;15.23;;;12.23;;
27303;SDS011;14791;52.392;13.092;2022-12-05T15:03:36;11.40;;;10.20;;
27303;SDS011;14791;52.392;13.092;2022-12-05T15:06:13;15.67;;;11.87;;
27303;SDS011;14791;52.392;13.092;2022-12-05T15:08:45;14.30;;;12.50;;
27303;SDS011;14791;52.392;13.092;2022-12-05T15:11:17;14.77;;;12.20;;
27303;SDS011;14791;52.392;13.092;2022-12-05T15:13:59;12.17;;;10.97;;
27303;SDS011;14791;52.392;13.092;2022-12-05T15:16:39;15.90;;;13.20;;
27303;SDS011;14791;52.392;13.092;2022-12-05T15:19:14;13.70;;;11.80;;
27303;SDS011;14791;52.392;13.092;2022-12-05T15:21:51;18.77;;;13.83;;
27303;SDS011;14791;52.392;13.092;2022-12-05T15:24:22;14.83;;;12.50;;
27303;SDS011;14791;52.392;13.092;2022-12-05T15:26:53;19.50;;;14.20;;
27303;SDS011;14791;52.392;13.092;2022-12-05T15:29:29;13.87;;;11.67;;
27303;SDS011;14791;52.392;13.092;2022-12-05T15:32:00;11.00;;;9.90;;
27303;SDS011;14791;52.392;13.092;2022-12-05T15:37:16;16.20;;;13.47;;
27303;SDS011;14791;52.392;13.092;2022-12-05T15:42:35;10.37;;;8.80;;
27303;SDS011;14791;52.392;13.092;2022-12-05T15:47:45;14.70;;;11.97;;
27303;SDS011;14791;52.392;13.092;2022-12-05T15:50:25;15.90;;;13.10;;
27303;SDS011;14791;52.392;13.092;2022-12-05T15:53:00;18.87;;;13.90;;
27303;SDS011;14791;52.392;13.092;2022-12-05T15:58:27;13.60;;;11.50;;
27303;SDS011;14791;52.392;13.092;2022-12-05T16:03:36;18.03;;;14.00;;
27303;SDS011;14791;52.392;13.092;2022-12-05T16:06:13;16.90;;;13.70;;
27303;SDS011;14791;52.392;13.092;2022-12-05T16:08:45;17.77;;;14.00;;
27303;SDS011;14791;52.392;13.092;2022-12-05T16:11:16;16.43;;;13.23;;
27303;SDS011;14791;52.392;13.092;2022-12-05T16:13:50;17.83;;;13.83;;
27303;SDS011;14791;52.392;13.092;2022-12-05T16:16:22;11.13;;;9.73;;
27303;SDS011;14791;52.392;13.092;2022-12-05T16:18:53;15.17;;;12.73;;
27303;SDS011;14791;52.392;13.092;2022-12-05T16:21:28;14.20;;;11.43;;
27303;SDS011;14791;52.392;13.092;2022-12-05T16:24:07;14.17;;;12.50;;
27303;SDS011;14791;52.392;13.092;2022-12-05T16:29:30;12.33;;;10.77;;
27303;SDS011;14791;52.392;13.092;2022-12-05T16:32:02;12.13;;;11.03;;
27303;SDS011;14791;52.392;13.092;2022-12-05T16:34:34;14.73;;;12.40;;
27303;SDS011;14791;52.392;13.092;2022-12-05T16:37:03;14.93;;;12.47;;
27303;SDS011;14791;52.392;13.092;2022-12-05T16:39:34;15.00;;;12.80;;
27303;SDS011;14791;52.392;13.092;2022-12-05T16:42:03;13.97;;;12.10;;
27303;SDS011;14791;52.392;13.092;2022-12-05T16:50:20;13.53;;;11.60;;
27303;SDS011;14791;52.392;13.092;2022-12-05T16:55:39;16.33;;;13.67;;
27303;SDS011;14791;52.392;13.092;2022-12-05T16:58:16;14.60;;;13.03;;
27303;SDS011;14791;52.392;13.092;2022-12-05T17:00:47;14.67;;;12.77;;
27303;SDS011;14791;52.392;13.092;2022-12-05T17:03:16;14.40;;;12.90;;
27303;SDS011;14791;52.392;13.092;2022-12-05T17:05:46;12.70;;;11.40;;
27303;SDS011;14791;52.392;13.092;2022-12-05T17:08:15;14.33;;;12.43;;
27303;SDS011;14791;52.392;13.092;2022-12-05T17:10:44;13.37;;;11.87;;
27303;SDS011;14791;52.392;13.092;2022-12-05T17:13:13;12.03;;;10.77;;
27303;SDS011;14791;52.392;13.092;2022-12-05T17:15:44;13.30;;;12.00;;
27303;SDS011;14791;52.392;13.092;2022-12-05T17:18:14;11.07;;;10.00;;
27303;SDS011;14791;52.392;13.092;2022-12-05T17:20:47;12.83;;;11.50;;
27303;SDS011;14791;52.392;13.092;2022-12-05T17:23:18;9.00;;;8.27;;
27303;SDS011;14791;52.392;13.092;2022-12-05T17:25:51;11.50;;;10.50;;
27303;SDS011;14791;52.392;13.092;2022-12-05T17:28:22;13.20;;;11.07;;
27303;SDS011;14791;52.392;13.092;2022-12-05T17:30:52;11.63;;;10.53;;
27303;SDS011;14791;52.392;13.092;2022-12-05T17:33:21;12.13;;;10.57;;
27303;SDS011;14791;52.392;13.092;2022-12-05T17:35:50;13.63;;;12.23;;
27303;SDS011;14791;52.392;13.092;2022-12-05T17:38:19;13.67;;;12.17;;
27303;SDS011;14791;52.392;13.092;2022-12-05T17:40:48;15.50;;;12.83;;
27303;SDS011;14791;52.392;13.092;2022-12-05T17:43:17;16.97;;;13.10;;
27303;SDS011;14791;52.392;13.092;2022-12-05T17:45:46;19.50;;;13.30;;
27303;SDS011;14791;52.392;13.092;2022-12-05T17:48:15;16.87;;;13.87;;
27303;SDS011;14791;52.392;13.092;2022-12-05T17:50:44;15.20;;;13.43;;
27303;SDS011;14791;52.392;13.092;2022-12-05T17:53:16;16.70;;;14.23;;
27303;SDS011;14791;52.392;13.092;2022-12-05T17:55:46;20.73;;;14.80;;
27303;SDS011;14791;52.392;13.092;2022-12-05T17:58:16;19.80;;;14.93;;
27303;SDS011;14791;52.392;13.092;2022-12-05T18:00:45;18.17;;;14.23;;